Terminal Aerodrome Forecast
Issued by NWS

Home | Current Version | Previous Version | Text Only | Print | Product List | Glossary On
Versions: 1 2 3 4 5 6 7 8 9 10 11 12 13 14 15 16 17 18 19 20 21
000
FTUS43 KTOP 022300
TAFMHK
TAF
KMHK 022326Z 0300/0324 09005KT P6SM FEW035
     FM030900 16005KT P6SM VCTS SCT015 BKN070CB
     FM031300 17013KT P6SM BKN150
     FM031600 20020G26KT P6SM FEW050=

USA.gov is the U.S. government's official web portal to all federal, state and local government web resources and services.